General Aviation Weather

Text Reports

Enter one or more of the following location identifiers separated by a space:

Zip Code, Four-Character ICAO or Three-Character IATA airport codes.

METAR - Aviation Routine Weather Report
KDGW - Douglas, Wyoming
Updated at 2:53 AM GMT on April 21, 2014 (8:53 PM MDT):
METAR KDGW 210253Z AUTO 02006KT 10SM CLR 12/00 A3013 RMK AO2 SLP174 T01170000 53023 $
TAF - Terminal Area Forecast
KDGW - Douglas, Wyoming
Updated at 2:53 AM GMT on April 21, 2014 (8:53 PM MDT):
No TAF is currently available for this location.
Decoded:
No decoded TAF is available.
PIREP - Pilot Weather Report
KDGW - Douglas, Wyoming
Updated at 2:53 AM GMT on April 21, 2014 (8:53 PM MDT):
No PIREP is currently available for this location.
AIRMET - Airmens Meteorological Information
KDGW - Douglas, Wyoming
Updated at 2:53 AM GMT on April 21, 2014 (8:53 PM MDT):
No AIRMET is currently available for this location.
SIGMET - Significant Meteorological Information
KDGW - Douglas, Wyoming
Updated at 2:53 AM GMT on April 21, 2014 (8:53 PM MDT):
No SIGMET is currently available for this location.
NOTAM - Notice to Airmen
KDGW - Douglas, Wyoming
Updated at 2:53 AM GMT on April 21, 2014 (8:53 PM MDT):
No NOTAM is currently available for this location.
Forecast Area
KDGW - Douglas, Wyoming
Updated at 2:53 AM GMT on April 21, 2014 (8:53 PM MDT):
No NOTAM is currently available for this location.
Aviation Weather Maps